Latest Weather Observations for Cape Jaffa

IDS60801

Issued at 7:05 am CST Wednesday 1 October 2014 (issued every 30 minutes, with the page automatically refreshed every 10 minutes)

About weather observations | Map of weather stations | Latest weather observations for SA | Other Formats
Station Details ID: 026095 Name: THE LIMESTONE Lat: -36.97 Lon: 139.72 Height: 17.0 m
Data from the previous 72 hours. | See also: Recent months at Cape Jaffa
Date/Time
CST
Temp
°C
App
Temp
°C
Dew
Point
Rel
Hum
%
Delta-T
°C
Wind Press
QNH
hPa
Press
MSL
hPa
Rain
since 9 am
mm
Dir
 
Spd
km/h
Gust
km/h
Spd
kts
Gust
kts
01/07:00am 11.4 5.0 3.4 58 3.5 SSW 26 32 14 17 1025.1 1025.1 1.2
01/06:30am 11.6 5.7 3.9 59 3.4 SW 24 33 13 18 1024.8 1024.8 1.2
01/06:00am 11.1 5.1 3.6 60 3.3 SW 24 33 13 18 1024.2 1024.2 1.2
01/05:30am 11.3 4.2 3.3 58 3.5 SW 30 39 16 21 1023.7 1023.7 1.2
01/05:00am 11.1 4.8 3.9 61 3.2 SW 26 35 14 19 1023.4 1023.4 1.2
01/04:30am 10.9 3.6 2.7 57 3.5 SSW 30 41 16 22 1022.9 1022.9 1.2
01/04:00am 10.7 3.5 2.8 58 3.4 SW 30 39 16 21 1022.6 1022.6 1.2
01/03:30am 11.2 3.0 2.5 55 3.7 SW 35 48 19 26 1022.2 1022.2 1.2
01/03:00am 11.1 3.7 1.9 53 3.9 SW 30 39 16 21 1022.0 1022.0 1.2
01/02:30am 11.2 3.9 2.5 55 3.7 SW 30 43 16 23 1021.8 1021.8 1.2
01/02:00am 11.0 4.1 4.5 64 2.9 SW 30 37 16 20 1021.5 1021.5 1.2
01/01:30am 11.0 4.2 5.3 68 2.6 SW 30 41 16 22 1021.4 1021.4 1.2
01/01:00am 10.5 4.3 4.4 66 2.7 SW 26 37 14 20 1021.3 1021.3 1.2
01/12:30am 11.6 3.9 3.4 57 3.6 SW 33 43 18 23 1021.1 1021.1 1.2
01/12:00am 11.5 4.9 4.0 60 3.3 SW 28 39 15 21 1021.0 1021.0 1.2
 
Date/Time
CST
Temp
°C
App
Temp
°C
Dew
Point
Rel
Hum
%
Delta-T
°C
Wind Press
QNH
hPa
Press
MSL
hPa
Rain
since 9 am
mm
Dir
 
Spd
km/h
Gust
km/h
Spd
kts
Gust
kts
30/11:30pm 11.6 4.1 3.6 58 3.5 SW 32 44 17 24 1020.6 1020.6 1.2
30/11:00pm 11.3 3.2 3.1 57 3.6 SW 35 48 19 26 1020.4 1020.4 1.2
30/10:30pm 11.2 3.7 3.5 59 3.4 SW 32 46 17 25 1020.0 1020.0 1.2
30/10:00pm 11.1 4.2 4.6 64 2.9 WSW 30 43 16 23 1019.7 1019.7 1.2
30/09:30pm 10.1 3.7 5.1 71 2.3 WSW 28 37 15 20 1019.6 1019.6 1.2
30/09:00pm 10.9 3.9 5.9 71 2.3 WSW 32 41 17 22 1019.1 1019.1 1.2
30/08:30pm 10.1 3.6 6.6 79 1.6 WSW 30 39 16 21 1018.8 1018.8 1.2
30/08:00pm 11.1 3.0 5.4 68 2.6 WSW 37 48 20 26 1018.2 1018.2 0.8
30/07:30pm 10.9 2.9 5.9 71 2.3 SW 37 48 20 26 1017.6 1017.6 0.8
30/07:00pm 11.9 3.2 3.9 58 3.6 WSW 39 52 21 28 1016.6 1016.6 0.8
30/06:30pm 11.6 3.4 5.0 64 3.0 WSW 37 52 20 28 1016.3 1016.3 0.8
30/06:07pm 11.7 3.9 4.9 63 3.1 WSW 35 54 19 29 1015.8 1015.8 0.8
30/06:00pm 11.3 2.9 5.6 68 2.6 WSW 39 52 21 28 1016.0 1016.0 0.8
30/05:30pm 11.3 2.3 6.2 71 2.4 WSW 43 57 23 31 1015.7 1015.7 0.8
30/05:00pm 12.1 4.2 6.4 68 2.7 WSW 37 52 20 28 1015.0 1015.0 0.8
30/04:30pm 11.3 2.7 8.3 82 1.5 SW 43 56 23 30 1014.9 1014.9 0.8
30/04:11pm 13.4 2.8 5.3 58 3.8 W 50 74 27 40 1013.9 1013.9 0.8
30/04:00pm 14.5 5.2 5.0 53 4.4 W 43 57 23 31 1013.8 1013.8 0.8
30/03:30pm 14.9 5.8 6.0 55 4.3 WSW 43 54 23 29 1013.4 1013.4 0.8
30/03:00pm 14.9 4.9 6.2 56 4.2 WSW 48 59 26 32 1013.0 1013.0 0.8
30/02:30pm 14.9 4.7 5.4 53 4.5 W 48 61 26 33 1012.3 1012.3 0.8
30/02:00pm 14.9 4.1 6.0 55 4.3 WSW 52 63 28 34 1011.8 1011.8 0.8
30/01:30pm 15.4 4.4 6.7 56 4.3 WSW 54 72 29 39 1011.5 1011.5 0.8
30/01:20pm 14.9 4.1 6.2 56 4.2 WSW 52 70 28 38 1011.0 1011.0 0.8
30/01:00pm 15.1 4.7 7.9 62 3.6 W 52 67 28 36 1010.8 1010.8 0.8
30/12:30pm 13.8 5.0 8.2 69 2.8 W 44 61 24 33 1010.7 1010.7 0.8
30/12:20pm 13.9 4.6 7.4 65 3.2 W 46 69 25 37 1010.5 1010.5 0.8
30/12:00pm 13.2 4.5 8.5 73 2.4 W 44 63 24 34 1010.2 1010.2 0.8
30/11:46am 13.8 3.0 7.8 67 3.0 W 54 78 29 42 1009.7 1009.7 0.8
30/11:30am 13.7 4.5 9.4 75 2.2 WSW 48 63 26 34 1009.6 1009.6 0.8
30/11:18am 12.4 3.9 9.2 81 1.6 WSW 44 59 24 32 1009.4 1009.4 0.8
30/11:13am 14.2 5.5 10.0 76 2.2 W 46 69 25 37 1009.3 1009.3 0.8
30/11:00am 14.6 6.5 10.8 78 2.0 W 44 57 24 31 1008.9 1008.9 0.8
30/10:40am 12.8 3.1 10.3 85 1.3 W 52 70 28 38 1009.0 1009.0 0.8
30/10:30am 12.7 2.5 10.1 84 1.3 W 54 70 29 38 1008.9 1008.9 0.8
30/10:22am 12.2 1.3 9.0 81 1.6 W 56 65 30 35 1008.8 1008.8 0.6
30/10:20am 14.4 7.6 12.1 86 1.2 WNW 39 59 21 32 1008.9 1008.9 0.2
30/10:00am 17.1 10.8 12.2 73 2.7 NW 37 54 20 29 1008.3 1008.3 0.0
30/09:30am 17.0 10.2 12.1 73 2.7 NW 39 57 21 31 1008.6 1008.6 0.0
30/09:28am 17.3 11.0 12.2 72 2.8 NW 37 56 20 30 1008.6 1008.6 0.0
30/09:00am 16.8 10.5 12.3 75 2.5 NW 37 52 20 28 1008.3 1008.3 0.0
30/08:30am 15.2 9.2 12.0 81 1.7 NW 35 54 19 29 1008.5 1008.5 0.0
30/08:27am 15.7 10.0 11.9 78 2.1 NW 33 54 18 29 1008.6 1008.6 0.0
30/08:00am 15.7 9.3 11.9 78 2.1 NNW 37 50 20 27 1008.4 1008.4 0.0
30/07:30am 15.1 8.7 11.9 81 1.7 NNW 37 50 20 27 1008.5 1008.5 0.0
30/07:00am 15.2 9.1 11.6 79 1.9 NNW 35 46 19 25 1008.5 1008.5 0.0
30/06:30am 14.9 9.2 11.7 81 1.7 NNW 33 44 18 24 1008.2 1008.2 0.0
30/06:00am 14.4 8.9 11.9 85 1.4 NNW 32 39 17 21 1008.1 1008.1 0.0
30/05:30am 14.1 9.3 11.8 86 1.2 N 28 37 15 20 1007.8 1007.8 0.0
30/05:00am 14.2 9.1 11.9 86 1.2 NNW 30 37 16 20 1007.9 1007.9 0.0
30/04:30am 14.4 9.4 12.1 86 1.2 NNW 30 37 16 20 1008.0 1008.0 0.0
30/04:00am 14.5 10.0 12.5 88 1.1 NNW 28 37 15 20 1008.5 1008.5 0.0
30/03:30am 14.5 9.9 12.2 86 1.3 NNW 28 35 15 19 1008.6 1008.6 0.0
30/03:00am 14.4 10.1 11.9 85 1.4 NNW 26 35 14 19 1009.1 1009.1 0.0
30/02:30am 14.4 10.3 11.6 83 1.5 NW 24 33 13 18 1009.4 1009.4 0.0
30/02:00am 14.3 10.2 11.5 83 1.5 NW 24 35 13 19 1009.8 1009.8 0.0
30/01:30am 13.9 10.1 11.2 84 1.4 NNW 22 30 12 16 1009.9 1009.9 0.0
30/01:00am 13.9 10.1 11.1 83 1.5 NW 22 30 12 16 1010.5 1010.5 0.0
30/12:30am 13.9 9.7 11.1 83 1.5 NW 24 32 13 17 1011.1 1011.1 0.0
30/12:00am 14.2 10.0 11.2 82 1.6 NW 24 33 13 18 1011.4 1011.4 0.0
 
Date/Time
CST
Temp
°C
App
Temp
°C
Dew
Point
Rel
Hum
%
Delta-T
°C
Wind Press
QNH
hPa
Press
MSL
hPa
Rain
since 9 am
mm
Dir
 
Spd
km/h
Gust
km/h
Spd
kts
Gust
kts
29/11:30pm 13.9 10.6 10.9 82 1.6 NW 19 26 10 14 1011.6 1011.6 0.0
29/11:00pm 13.9 10.5 10.5 80 1.8 NW 19 24 10 13 1011.8 1011.8 0.0
29/10:30pm 13.6 10.8 10.0 79 1.9 NW 15 20 8 11 1012.1 1012.1 0.0
29/10:00pm 14.3 10.5 9.9 75 2.3 WNW 20 32 11 17 1012.2 1012.2 0.0
29/09:30pm 14.2 11.7 11.2 82 1.6 WNW 15 20 8 11 1012.6 1012.6 0.0
29/09:00pm 13.6 11.7 10.6 82 1.6 NW 11 15 6 8 1012.6 1012.6 0.0
29/08:30pm 12.7 10.6 9.9 83 1.4 WNW 11 13 6 7 1012.5 1012.5 0.0
29/08:00pm 12.7 10.7 10.1 84 1.3 WNW 11 13 6 7 1012.4 1012.4 0.0
29/07:30pm 12.6 10.6 10.3 86 1.2 WNW 11 15 6 8 1012.4 1012.4 0.0
29/07:00pm 13.2 11.4 10.7 85 1.3 WNW 11 13 6 7 1012.2 1012.2 0.0
29/06:30pm 13.7 11.5 10.9 83 1.5 NW 13 17 7 9 1012.1 1012.1 0.0
29/06:00pm 14.0 11.4 10.6 80 1.8 NNW 15 19 8 10 1012.1 1012.1 0.0
29/05:30pm 14.7 11.3 10.5 76 2.2 NNW 19 24 10 13 1012.0 1012.0 0.0
29/05:00pm 15.2 11.5 10.2 72 2.6 N 20 24 11 13 1011.9 1011.9 0.0
29/04:30pm 15.7 11.7 10.5 71 2.7 NNW 22 28 12 15 1012.0 1012.0 0.0
29/04:00pm 16.0 12.1 10.7 71 2.8 NNW 22 28 12 15 1011.9 1011.9 0.0
29/03:30pm 16.1 12.5 10.6 70 2.9 NNW 20 26 11 14 1012.0 1012.0 0.0
29/03:00pm 16.9 13.0 10.7 67 3.3 NNW 22 30 12 16 1012.1 1012.1 0.0
29/02:30pm 16.8 12.0 10.2 65 3.5 NNW 26 30 14 16 1012.4 1012.4 0.0
29/02:00pm 17.1 12.5 9.8 62 3.8 NW 24 33 13 18 1012.6 1012.6 0.0
29/01:30pm 17.0 11.7 9.7 62 3.8 NW 28 35 15 19 1012.9 1012.9 0.0
29/01:00pm 17.1 11.8 9.8 62 3.8 NW 28 35 15 19 1013.3 1013.3 0.0
29/12:30pm 17.4 12.5 9.8 61 4.0 NNW 26 33 14 18 1013.5 1013.5 0.0
29/12:00pm 17.5 12.7 8.9 57 4.5 NNW 24 33 13 18 1013.7 1013.7 0.0
29/11:30am 17.1 11.6 9.0 59 4.2 NNW 28 37 15 20 1013.6 1013.6 0.0
29/11:00am 16.6 11.2 8.1 57 4.3 NW 26 33 14 18 1013.8 1013.8 0.0
29/10:30am 16.8 11.1 8.5 58 4.2 NNW 28 33 15 18 1013.8 1013.8 0.0
29/10:00am 16.2 11.2 7.9 58 4.2 WNW 24 33 13 18 1013.8 1013.8 0.0
29/09:30am 15.8 11.4 9.0 64 3.5 WNW 22 32 12 17 1014.0 1014.0 0.0
29/09:00am 16.4 12.2 8.4 59 4.1 WNW 20 26 11 14 1014.0 1014.0 0.0
29/08:30am 15.7 11.3 9.1 65 3.4 WNW 22 28 12 15 1013.9 1013.9 0.0
29/08:00am 15.1 11.7 10.5 74 2.4 WNW 19 26 10 14 1013.6 1013.6 0.0
29/07:30am 15.1 11.1 9.2 68 3.0 WNW 20 28 11 15 1013.2 1013.2 0.0
29/07:00am 14.2 10.4 9.2 72 2.6 W 19 24 10 13 1013.0 1013.0 0.0
29/06:30am 13.2 9.8 9.1 76 2.1 W 17 22 9 12 1012.7 1012.7 0.0
29/06:00am 12.7 8.7 8.4 75 2.1 W 19 28 10 15 1012.4 1012.4 0.0
29/05:30am 12.9 8.7 8.4 74 2.2 W 20 28 11 15 1012.3 1012.3 0.0
29/05:00am 13.1 8.3 8.8 75 2.2 W 24 30 13 16 1012.2 1012.2 0.0
29/04:30am 13.2 7.9 8.5 73 2.3 W 26 33 14 18 1011.9 1011.9 0.0
29/04:00am 13.6 8.5 9.1 74 2.3 W 26 33 14 18 1011.6 1011.6 0.0
29/03:30am 13.6 8.9 9.1 74 2.3 W 24 35 13 19 1011.6 1011.6 0.0
29/03:00am 14.2 8.8 9.6 74 2.4 W 28 35 15 19 1011.6 1011.6 0.0
29/02:30am 14.0 8.1 9.2 73 2.4 W 30 37 16 20 1011.2 1011.2 0.0
29/02:00am 14.3 10.0 10.9 80 1.8 W 24 35 13 19 1011.0 1011.0 0.0
29/01:30am 14.3 8.5 10.9 80 1.8 WNW 32 41 17 22 1011.2 1011.2 0.0
29/01:00am 14.7 10.1 11.1 79 1.9 WNW 26 41 14 22 1011.3 1011.3 0.0
29/12:30am 14.6 7.7 10.4 76 2.2 W 37 52 20 28 1011.3 1011.3 0.0
29/12:00am 14.7 7.5 10.7 77 2.1 WNW 39 52 21 28 1011.3 1011.3 0.0
 
Date/Time
CST
Temp
°C
App
Temp
°C
Dew
Point
Rel
Hum
%
Delta-T
°C
Wind Press
QNH
hPa
Press
MSL
hPa
Rain
since 9 am
mm
Dir
 
Spd
km/h
Gust
km/h
Spd
kts
Gust
kts
28/11:30pm 14.9 9.0 11.1 78 2.0 WNW 33 43 18 23 1011.1 1011.1 0.0
28/11:00pm 15.0 8.6 10.8 76 2.2 WNW 35 50 19 27 1010.8 1010.8 0.0
28/10:30pm 14.9 7.6 10.3 74 2.4 WNW 39 56 21 30 1010.6 1010.6 0.0
28/10:00pm 14.9 7.7 10.7 76 2.2 WNW 39 52 21 28 1010.5 1010.5 0.0
28/09:42pm 14.8 8.0 10.6 76 2.2 WNW 37 56 20 30 1010.3 1010.3 0.0
28/09:30pm 14.9 8.5 10.7 76 2.2 WNW 35 48 19 26 1010.2 1010.2 0.0
28/09:00pm 14.5 9.4 10.5 77 2.1 WNW 28 39 15 21 1010.0 1010.0 0.0
28/08:30pm 14.5 9.4 10.7 78 2.0 WNW 28 39 15 21 1009.8 1009.8 0.0
28/08:00pm 14.6 8.7 10.4 76 2.2 W 32 43 17 23 1009.6 1009.6 0.0
28/07:30pm 14.5 9.0 10.5 77 2.1 WNW 30 41 16 22 1008.9 1008.9 0.0
28/07:00pm 14.5 9.8 10.7 78 2.0 W 26 35 14 19 1008.4 1008.4 0.0
28/06:30pm 14.4 9.2 10.2 76 2.2 W 28 37 15 20 1007.9 1007.9 0.0
28/06:00pm 14.8 10.1 10.6 76 2.2 W 26 33 14 18 1007.5 1007.5 0.0
28/05:30pm 15.5 11.2 10.7 73 2.6 W 24 32 13 17 1007.1 1007.1 0.0
28/05:00pm 16.1 11.9 11.1 72 2.7 W 24 33 13 18 1006.7 1006.7 0.0
28/04:30pm 16.4 11.4 10.9 70 3.0 W 28 37 15 20 1006.5 1006.5 0.0
28/04:00pm 17.0 11.2 10.8 67 3.3 WSW 32 41 17 22 1006.0 1006.0 0.0
28/03:30pm 17.2 11.5 11.9 71 2.9 W 33 44 18 24 1005.7 1005.7 0.0
28/03:00pm 18.2 12.9 13.1 72 2.9 W 33 44 18 24 1005.5 1005.5 0.0
28/02:30pm 19.3 13.5 12.6 65 3.8 W 35 46 19 25 1005.1 1005.1 0.0
28/02:18pm 19.9 13.6 12.2 61 4.3 WNW 37 48 20 26 1004.9 1004.9 0.0
28/02:00pm 20.1 14.8 12.6 62 4.2 NNW 32 43 17 23 1004.5 1004.4 0.0
28/01:30pm 21.0 14.9 11.6 55 5.2 NNW 35 46 19 25 1004.2 1004.2 0.0
28/01:00pm 21.3 13.8 10.8 51 5.8 N 41 52 22 28 1003.8 1003.8 0.0
28/12:30pm 21.6 14.1 10.7 50 6.0 N 41 54 22 29 1003.6 1003.6 0.0
28/12:00pm 20.9 12.9 10.4 51 5.7 N 43 56 23 30 1004.2 1004.2 0.0
28/11:30am 21.0 13.4 10.5 51 5.7 N 41 52 22 28 1004.7 1004.6 0.0
28/11:00am 21.3 14.8 10.5 50 5.9 NNW 35 46 19 25 1005.2 1005.2 0.0
28/10:30am 21.2 14.8 10.7 51 5.8 NNW 35 48 19 26 1005.5 1005.5 0.0
28/10:00am 20.2 14.1 10.3 53 5.3 N 33 43 18 23 1005.9 1005.9 0.0
28/09:30am 21.0 14.8 10.2 50 5.9 N 33 44 18 24 1006.1 1006.1 0.0
28/09:00am 20.8 13.0 9.7 49 6.0 N 41 52 22 28 1005.3 1005.3 0.0
28/08:30am 19.0 12.2 9.2 53 5.2 N 35 46 19 25 1005.6 1005.6 0.0
28/08:00am 19.5 12.3 9.1 51 5.5 N 37 50 20 27 1005.3 1005.3 0.0
28/07:30am 20.7 11.2 8.4 45 6.5 N 48 65 26 35 1003.6 1003.6 0.0

Other Formats:

Comma delimited format used in spreadsheet applications
http://www.bom.gov.au/fwo/IDS60801/IDS60801.94813.axf

JavaScript Object Notation format (JSON) in row-major order
http://www.bom.gov.au/fwo/IDS60801/IDS60801.94813.json